Time;durP1;ratioP1;P1;durP2;ratioP2;P2;SDS_P1;SDS_P2;PMS_P1;PMS_P2;Temp;Humidity;BMP_temperature;BMP_pressure;BME280_temperature;BME280_humidity;BME280_pressure;Samples;Min_cycle;Max_cycle;Signal;HPM_P1;HPM_P2
2022/02/07 00:01:51;;;;;;;;;8.00;8.00;;;;;;;;5159602;27;21956;-74
2022/02/07 00:04:22;;;;;;;;;8.75;7.00;;;;;;;;5160316;27;11589;-72
2022/02/07 00:06:47;;;;;;;;;4.00;4.00;;;;;;;;5160223;27;11385;-73
2022/02/07 00:09:13;;;;;;;;;6.00;6.00;;;;;;;;5160460;27;11510;-73
2022/02/07 00:11:38;;;;;;;;;12.50;8.00;;;;;;;;5159780;27;8873;-74
2022/02/07 00:14:04;;;;;;;;;7.50;7.50;;;;;;;;5159983;27;21882;-73
2022/02/07 00:16:31;;;;;;;;;13.00;9.00;;;;;;;;5159313;27;21422;-74
2022/02/07 00:18:56;;;;;;;;;10.00;9.00;;;;;;;;5160400;27;21573;-75
2022/02/07 00:21:22;;;;;;;;;11.50;9.50;;;;;;;;5160361;27;12162;-74
2022/02/07 00:23:47;;;;;;;;;10.00;9.75;;;;;;;;5141362;27;12296;-74
2022/02/07 00:26:12;;;;;;;;;8.00;8.00;;;;;;;;5160607;27;10864;-73
2022/02/07 00:28:38;;;;;;;;;10.00;10.00;;;;;;;;5159356;27;21959;-74
2022/02/07 00:31:03;;;;;;;;;11.50;9.50;;;;;;;;5159399;27;23775;-74
2022/02/07 00:33:28;;;;;;;;;11.50;11.50;;;;;;;;5159779;27;21439;-74
2022/02/07 00:35:53;;;;;;;;;12.75;9.00;;;;;;;;5159875;27;16308;-73
2022/02/07 00:38:21;;;;;;;;;12.25;10.00;;;;;;;;5159279;27;21525;-73
2022/02/07 00:46:14;;;;;;;;;8.50;8.50;;;;;;;;5054202;28;11483;-73
2022/02/07 00:48:40;;;;;;;;;3.00;2.00;;;;;;;;5055498;28;23515;-73
2022/02/07 00:51:06;;;;;;;;;8.50;6.00;;;;;;;;5055497;28;11524;-75
2022/02/07 00:53:33;;;;;;;;;6.00;6.00;;;;;;;;5055569;28;11424;-73
2022/02/07 00:55:59;;;;;;;;;7.75;7.75;;;;;;;;5071786;27;8853;-72
2022/02/07 00:58:24;;;;;;;;;7.00;4.75;;;;;;;;5159920;27;11547;-73
2022/02/07 01:00:52;;;;;;;;;10.25;6.00;;;;;;;;5160363;27;9433;-75
2022/02/07 01:03:17;;;;;;;;;8.00;5.25;;;;;;;;5159426;27;21598;-73
2022/02/07 01:05:42;;;;;;;;;11.75;8.00;;;;;;;;5140076;27;24986;-74
2022/02/07 01:08:08;;;;;;;;;9.00;9.00;;;;;;;;5158736;27;21351;-73
2022/02/07 01:10:45;;;;;;;;;9.75;8.00;;;;;;;;5159786;27;22582;-73
2022/02/07 01:13:25;;;;;;;;;7.25;6.00;;;;;;;;5163583;27;9520;-73
2022/02/07 01:55:42;;;;;;;;;5.00;4.00;;;;;;;;5162442;27;21434;-73
2022/02/07 01:58:07;;;;;;;;;8.00;5.00;;;;;;;;5162084;27;21807;-73
2022/02/07 02:00:34;;;;;;;;;4.25;4.00;;;;;;;;5163342;27;12202;-73
2022/02/07 02:03:00;;;;;;;;;7.25;7.00;;;;;;;;5163105;27;10582;-73
2022/02/07 02:05:27;;;;;;;;;5.00;5.00;;;;;;;;5162816;27;11398;-74
2022/02/07 02:07:52;;;;;;;;;4.50;4.50;;;;;;;;5162342;27;10351;-73
2022/02/07 02:10:17;;;;;;;;;6.00;6.00;;;;;;;;5162509;27;11633;-73
2022/02/07 02:13:20;;;;;;;;;7.75;4.00;;;;;;;;5162540;27;11503;-72
2022/02/07 02:15:52;;;;;;;;;6.00;6.00;;;;;;;;5156871;27;10374;-73
2022/02/07 02:47:49;;;;;;;;;5.00;3.33;;;;;;;;5161787;27;12459;-74
2022/02/07 02:50:29;;;;;;;;;8.00;4.00;;;;;;;;5161640;27;11521;-74
2022/02/07 02:52:56;;;;;;;;;8.00;4.67;;;;;;;;5162092;27;11368;-74
2022/02/07 02:55:21;;;;;;;;;3.33;2.00;;;;;;;;5161833;27;11552;-74
2022/02/07 02:57:46;;;;;;;;;8.00;4.00;;;;;;;;5161441;27;11401;-73
2022/02/07 03:00:12;;;;;;;;;7.00;4.00;;;;;;;;5161431;27;10607;-74
2022/02/07 03:02:37;;;;;;;;;11.33;5.00;;;;;;;;5162862;27;8772;-75
2022/02/07 03:05:02;;;;;;;;;4.67;4.00;;;;;;;;5161759;27;21633;-74
2022/02/07 03:07:28;;;;;;;;;4.33;4.00;;;;;;;;5161524;27;21329;-73
2022/02/07 03:09:55;;;;;;;;;7.33;4.67;;;;;;;;5162181;27;8827;-75
2022/02/07 03:12:20;;;;;;;;;4.00;4.00;;;;;;;;5161336;27;11711;-73
2022/02/07 03:14:47;;;;;;;;;5.33;4.00;;;;;;;;5161329;27;11454;-74
2022/02/07 03:17:13;;;;;;;;;4.00;2.00;;;;;;;;5162285;27;8851;-74
2022/02/07 03:19:38;;;;;;;;;2.00;2.00;;;;;;;;5161690;27;11387;-74
2022/02/07 03:22:04;;;;;;;;;5.00;4.00;;;;;;;;5142839;27;9211;-74
2022/02/07 03:24:29;;;;;;;;;2.67;2.67;;;;;;;;5161023;27;8853;-74
2022/02/07 03:26:55;;;;;;;;;5.00;4.00;;;;;;;;5160757;27;11454;-75
2022/02/07 03:29:20;;;;;;;;;8.00;5.00;;;;;;;;5160479;27;12486;-75
2022/02/07 03:31:45;;;;;;;;;5.00;3.33;;;;;;;;5161163;27;8808;-74
2022/02/07 03:34:11;;;;;;;;;2.67;2.67;;;;;;;;5160337;27;11258;-74
2022/02/07 03:36:36;;;;;;;;;6.00;4.00;;;;;;;;5160920;27;11271;-75
2022/02/07 03:39:03;;;;;;;;;2.67;2.67;;;;;;;;5162186;27;11445;-74
2022/02/07 03:41:30;;;;;;;;;5.00;3.33;;;;;;;;5161471;27;12588;-74
2022/02/07 03:43:55;;;;;;;;;5.00;4.00;;;;;;;;5160681;27;11592;-74
2022/02/07 03:46:21;;;;;;;;;3.25;2.00;;;;;;;;5160809;27;11401;-75
2022/02/07 03:48:46;;;;;;;;;8.00;5.00;;;;;;;;5161859;27;10483;-74
2022/02/07 03:51:11;;;;;;;;;4.00;4.00;;;;;;;;5161934;27;10505;-73
2022/02/07 03:53:37;;;;;;;;;4.00;2.00;;;;;;;;5161307;27;8788;-73
2022/02/07 03:56:03;;;;;;;;;5.00;2.67;;;;;;;;5161497;27;8796;-74
2022/02/07 03:58:28;;;;;;;;;3.33;2.00;;;;;;;;5160658;27;11304;-73
2022/02/07 04:00:54;;;;;;;;;4.00;4.00;;;;;;;;5160746;27;11271;-73
2022/02/07 04:03:23;;;;;;;;;5.00;2.00;;;;;;;;5141456;27;13151;-74
2022/02/07 04:05:55;;;;;;;;;5.00;4.33;;;;;;;;5161108;27;11399;-74
2022/02/07 04:08:27;;;;;;;;;3.33;2.00;;;;;;;;5142395;27;12360;-73
2022/02/07 04:11:04;;;;;;;;;3.50;2.00;;;;;;;;5160952;27;11502;-73
2022/02/07 04:13:32;;;;;;;;;4.67;2.67;;;;;;;;5160639;27;11379;-73
2022/02/07 04:16:00;;;;;;;;;4.33;2.00;;;;;;;;5160734;27;11422;-73
2022/02/07 04:18:28;;;;;;;;;7.00;2.00;;;;;;;;5160330;27;12245;-75
2022/02/07 04:20:53;;;;;;;;;2.00;2.00;;;;;;;;5160867;27;11567;-74
2022/02/07 04:23:19;;;;;;;;;8.50;3.00;;;;;;;;5160501;27;11520;-74
2022/02/07 04:25:44;;;;;;;;;4.33;4.00;;;;;;;;5160766;27;11598;-74
2022/02/07 04:28:09;;;;;;;;;4.75;4.00;;;;;;;;5159630;27;10324;-73
2022/02/07 04:30:35;;;;;;;;;2.75;2.00;;;;;;;;5160299;27;8784;-73
2022/02/07 04:33:00;;;;;;;;;4.00;4.00;;;;;;;;5160129;27;8832;-73
2022/02/07 04:35:25;;;;;;;;;1.00;1.00;;;;;;;;5161103;27;11580;-75
2022/02/07 04:37:51;;;;;;;;;2.00;2.00;;;;;;;;5161181;27;8795;-74
2022/02/07 04:40:16;;;;;;;;;2.67;2.00;;;;;;;;5161170;27;8861;-74
2022/02/07 04:42:41;;;;;;;;;4.33;2.00;;;;;;;;5160954;27;8877;-73
2022/02/07 04:45:26;;;;;;;;;4.00;3.33;;;;;;;;5162017;27;8953;-73
2022/02/07 04:50:36;;;;;;;;;2.00;1.00;;;;;;;;5163685;27;11398;-77
2022/02/07 04:58:59;;;;;;;;;0.00;0.00;;;;;;;;5163589;27;11506;-72
2022/02/07 05:03:24;;;;;;;;;0.67;0.67;;;;;;;;5155940;27;12340;-73
2022/02/07 05:13:50;;;;;;;;;1.00;1.00;;;;;;;;5151042;27;11401;-73
2022/02/07 05:16:25;;;;;;;;;6.00;2.00;;;;;;;;5132940;27;11392;-73
2022/02/07 05:18:55;;;;;;;;;1.00;1.00;;;;;;;;5152911;27;9650;-73
2022/02/07 05:21:21;;;;;;;;;1.00;1.00;;;;;;;;5152598;27;11388;-73
2022/02/07 05:23:46;;;;;;;;;4.00;4.00;;;;;;;;5154376;27;12188;-73
2022/02/07 05:26:12;;;;;;;;;2.00;0.00;;;;;;;;5151618;27;8887;-73
2022/02/07 05:28:37;;;;;;;;;1.33;1.00;;;;;;;;5142432;27;9241;-74
2022/02/07 05:31:02;;;;;;;;;2.00;1.00;;;;;;;;5142956;27;10482;-77
2022/02/07 05:33:28;;;;;;;;;1.00;0.00;;;;;;;;5150935;27;8863;-74
2022/02/07 05:35:53;;;;;;;;;1.00;0.33;;;;;;;;5153903;27;8808;-74
2022/02/07 05:38:18;;;;;;;;;2.00;1.00;;;;;;;;5152422;27;9457;-74
2022/02/07 05:40:56;;;;;;;;;1.00;1.00;;;;;;;;5152062;27;11533;-74
2022/02/07 05:43:21;;;;;;;;;3.67;2.00;;;;;;;;5153062;27;8786;-73
2022/02/07 05:45:47;;;;;;;;;5.33;3.00;;;;;;;;5152155;27;10429;-74
2022/02/07 05:48:12;;;;;;;;;2.67;2.67;;;;;;;;5153475;27;10270;-75
2022/02/07 05:50:37;;;;;;;;;5.67;2.67;;;;;;;;5152543;27;11280;-73
2022/02/07 05:53:03;;;;;;;;;3.00;1.33;;;;;;;;5152367;27;8780;-74
2022/02/07 05:55:28;;;;;;;;;3.00;3.00;;;;;;;;5153889;27;11394;-74
2022/02/07 05:57:54;;;;;;;;;4.00;2.33;;;;;;;;5150546;27;9727;-74
2022/02/07 06:00:20;;;;;;;;;1.00;1.00;;;;;;;;5157747;27;11469;-74
2022/02/07 06:02:45;;;;;;;;;4.33;2.00;;;;;;;;5144510;27;13685;-73
2022/02/07 06:05:11;;;;;;;;;3.00;3.00;;;;;;;;5146438;27;10335;-74
2022/02/07 06:07:36;;;;;;;;;6.00;2.33;;;;;;;;5143075;27;10299;-75
2022/02/07 06:10:02;;;;;;;;;7.00;6.33;;;;;;;;5142694;27;11368;-73
2022/02/07 06:12:27;;;;;;;;;5.33;3.00;;;;;;;;5153356;27;8780;-75
2022/02/07 06:14:53;;;;;;;;;6.67;2.00;;;;;;;;5151344;27;11447;-74
2022/02/07 06:17:18;;;;;;;;;2.67;2.00;;;;;;;;5152581;27;10458;-74
2022/02/07 06:19:44;;;;;;;;;5.00;2.33;;;;;;;;5153783;27;8806;-74
2022/02/07 06:22:09;;;;;;;;;8.33;2.33;;;;;;;;5132926;27;11661;-74
2022/02/07 06:24:34;;;;;;;;;4.33;2.00;;;;;;;;5157996;27;8797;-74
2022/02/07 06:26:59;;;;;;;;;3.00;2.67;;;;;;;;5155209;27;11399;-74
2022/02/07 06:29:25;;;;;;;;;2.33;2.33;;;;;;;;5151873;27;11475;-74
2022/02/07 06:31:50;;;;;;;;;5.00;3.67;;;;;;;;5150813;27;11784;-76
2022/02/07 06:34:16;;;;;;;;;5.67;1.33;;;;;;;;5151433;27;12688;-76
2022/02/07 06:36:41;;;;;;;;;2.67;1.33;;;;;;;;5151350;27;11438;-75
2022/02/07 06:39:07;;;;;;;;;6.00;5.00;;;;;;;;5150032;27;8797;-77
2022/02/07 06:41:32;;;;;;;;;5.50;2.00;;;;;;;;5151740;27;11748;-80
2022/02/07 06:43:57;;;;;;;;;6.50;4.50;;;;;;;;5149404;27;10429;-77
2022/02/07 06:46:23;;;;;;;;;5.75;3.50;;;;;;;;5144716;27;11486;-76
2022/02/07 06:48:48;;;;;;;;;10.67;3.00;;;;;;;;5132349;27;13655;-75
2022/02/07 06:51:13;;;;;;;;;4.00;4.00;;;;;;;;5151517;27;21428;-75
2022/02/07 06:53:39;;;;;;;;;4.00;2.50;;;;;;;;5150481;27;21331;-75
2022/02/07 06:56:04;;;;;;;;;6.75;4.00;;;;;;;;5151499;27;9385;-76
2022/02/07 06:58:30;;;;;;;;;7.75;5.00;;;;;;;;5149568;27;11327;-76
2022/02/07 07:00:55;;;;;;;;;7.25;6.25;;;;;;;;5147628;27;8943;-78
2022/02/07 07:03:21;;;;;;;;;14.33;10.67;;;;;;;;5151473;27;10801;-77
2022/02/07 07:05:49;;;;;;;;;11.33;8.00;;;;;;;;5154549;27;23785;-75
2022/02/07 07:08:14;;;;;;;;;12.33;11.33;;;;;;;;5160898;27;21481;-76
2022/02/07 07:10:40;;;;;;;;;8.00;6.33;;;;;;;;5142463;27;21934;-74
2022/02/07 07:13:15;;;;;;;;;8.67;8.00;;;;;;;;5162177;27;22403;-77
2022/02/07 07:15:47;;;;;;;;;11.50;7.75;;;;;;;;5142860;27;10796;-76
2022/02/07 07:18:12;;;;;;;;;5.00;5.00;;;;;;;;5161854;27;21954;-82
2022/02/07 07:20:37;;;;;;;;;8.67;6.00;;;;;;;;5162330;27;21613;-84
2022/02/07 07:23:03;;;;;;;;;6.00;5.75;;;;;;;;5162350;27;10788;-77
2022/02/07 07:25:30;;;;;;;;;6.50;2.75;;;;;;;;5162227;27;11523;-75
2022/02/07 07:28:04;;;;;;;;;2.50;2.00;;;;;;;;5143084;27;11431;-74
2022/02/07 07:30:35;;;;;;;;;6.50;5.25;;;;;;;;5159750;27;11971;-75
2022/02/07 07:33:08;;;;;;;;;5.50;2.00;;;;;;;;5148498;27;11689;-74
2022/02/07 07:35:33;;;;;;;;;6.00;2.25;;;;;;;;5149710;27;12096;-75
2022/02/07 07:37:59;;;;;;;;;3.75;2.00;;;;;;;;5139290;27;11498;-77
2022/02/07 07:40:24;;;;;;;;;4.50;3.00;;;;;;;;5147287;27;11569;-72
2022/02/07 07:42:55;;;;;;;;;12.00;6.25;;;;;;;;5150749;27;11654;-80
2022/02/07 07:45:24;;;;;;;;;7.75;3.00;;;;;;;;5130035;27;25206;-74
2022/02/07 07:47:51;;;;;;;;;3.00;2.75;;;;;;;;5150323;27;22805;-76
2022/02/07 07:50:22;;;;;;;;;6.50;4.25;;;;;;;;5145870;27;12922;-79
2022/02/07 08:03:40;;;;;;;;;10.50;7.00;;;;;;;;5161047;27;11381;-77
2022/02/07 08:11:32;;;;;;;;;6.00;4.00;;;;;;;;5139924;27;21777;-80
2022/02/07 08:13:59;;;;;;;;;6.50;4.00;;;;;;;;5140429;27;12600;-79
2022/02/07 08:16:24;;;;;;;;;8.75;4.00;;;;;;;;5139506;27;11445;-77
2022/02/07 08:18:50;;;;;;;;;11.75;6.75;;;;;;;;5140117;27;12090;-79
2022/02/07 08:23:53;;;;;;;;;7.00;7.00;;;;;;;;5216043;27;78759;-79
2022/02/07 08:26:19;;;;;;;;;8.50;7.00;;;;;;;;5199254;27;21469;-79
2022/02/07 08:28:45;;;;;;;;;7.25;7.25;;;;;;;;5199628;27;9561;-79
2022/02/07 08:31:11;;;;;;;;;10.00;8.50;;;;;;;;5199953;27;11601;-80
2022/02/07 08:33:37;;;;;;;;;8.75;6.00;;;;;;;;5198437;27;21649;-85
2022/02/07 08:36:05;;;;;;;;;7.75;7.25;;;;;;;;5197757;27;21284;-83
2022/02/07 08:38:30;;;;;;;;;8.00;8.00;;;;;;;;5199254;27;11384;-77
2022/02/07 08:40:56;;;;;;;;;8.00;7.00;;;;;;;;5180114;27;14495;-80
2022/02/07 08:43:21;;;;;;;;;7.25;6.75;;;;;;;;5199489;27;8780;-80
2022/02/07 08:45:46;;;;;;;;;8.75;8.25;;;;;;;;5199105;27;11278;-80
2022/02/07 08:48:12;;;;;;;;;8.75;6.75;;;;;;;;5199209;27;10252;-80
2022/02/07 08:50:38;;;;;;;;;12.50;10.00;;;;;;;;5198737;27;8886;-79
2022/02/07 08:53:05;;;;;;;;;12.50;8.00;;;;;;;;5196694;27;22921;-79
2022/02/07 08:55:39;;;;;;;;;13.75;8.75;;;;;;;;5199024;27;16494;-81
2022/02/07 08:58:12;;;;;;;;;9.75;8.25;;;;;;;;5179020;27;12760;-80
2022/02/07 09:03:41;;;;;;;;;11.75;9.00;;;;;;;;5198109;27;11459;-77
2022/02/07 09:11:09;;;;;;;;;10.25;8.50;;;;;;;;5197772;27;12156;-77
2022/02/07 09:13:37;;;;;;;;;6.50;6.50;;;;;;;;5197229;27;21901;-78
2022/02/07 09:16:15;;;;;;;;;10.25;5.00;;;;;;;;5197387;27;22043;-76
2022/02/07 09:18:41;;;;;;;;;8.25;7.00;;;;;;;;5196980;27;21668;-78
2022/02/07 09:21:07;;;;;;;;;9.00;6.75;;;;;;;;5178688;27;21779;-78
2022/02/07 09:23:34;;;;;;;;;7.00;5.00;;;;;;;;5197295;27;12685;-75
2022/02/07 09:26:00;;;;;;;;;9.00;7.00;;;;;;;;5198315;27;11427;-77
2022/02/07 09:28:25;;;;;;;;;4.50;4.00;;;;;;;;5197582;27;11402;-78
2022/02/07 09:30:50;;;;;;;;;4.25;4.00;;;;;;;;5198156;27;10489;-77
2022/02/07 09:33:17;;;;;;;;;7.50;3.50;;;;;;;;5176132;27;9025;-75
2022/02/07 09:35:43;;;;;;;;;9.50;6.00;;;;;;;;5184423;27;11373;-77
2022/02/07 09:38:08;;;;;;;;;5.00;4.25;;;;;;;;5184121;27;11611;-76
2022/02/07 09:40:34;;;;;;;;;8.75;4.75;;;;;;;;5184343;27;11289;-74
2022/02/07 09:42:59;;;;;;;;;6.50;4.00;;;;;;;;5183922;27;10274;-75
2022/02/07 09:45:40;;;;;;;;;10.75;7.25;;;;;;;;5184034;27;12582;-77
2022/02/07 09:48:08;;;;;;;;;8.00;5.00;;;;;;;;5182868;27;21406;-79
2022/02/07 09:50:34;;;;;;;;;9.00;8.00;;;;;;;;5184399;27;22522;-77
2022/02/07 09:53:00;;;;;;;;;3.50;3.50;;;;;;;;5177147;27;11662;-74
2022/02/07 09:55:25;;;;;;;;;8.00;3.25;;;;;;;;5180763;27;11844;-75
2022/02/07 09:57:53;;;;;;;;;2.00;2.00;;;;;;;;5182407;27;11535;-76
2022/02/07 10:00:21;;;;;;;;;5.00;4.00;;;;;;;;5183648;27;12612;-74
2022/02/07 10:03:04;;;;;;;;;5.50;4.00;;;;;;;;5183468;27;11460;-78
2022/02/07 10:05:33;;;;;;;;;6.00;5.00;;;;;;;;5185237;27;11442;-73
2022/02/07 10:08:10;;;;;;;;;6.00;5.00;;;;;;;;5183762;27;13021;-73
2022/02/07 10:10:44;;;;;;;;;5.75;5.00;;;;;;;;5184012;27;11420;-75
2022/02/07 10:15:53;;;;;;;;;6.00;3.00;;;;;;;;5173189;27;11468;-75
2022/02/07 10:35:06;;;;;;;;;7.00;4.75;;;;;;;;5162369;27;11433;-74
2022/02/07 10:43:09;;;;;;;;;8.00;4.25;;;;;;;;5174305;27;12171;-75
2022/02/07 10:45:47;;;;;;;;;7.50;4.75;;;;;;;;5173701;27;11689;-76
2022/02/07 10:48:13;;;;;;;;;6.00;5.00;;;;;;;;5182781;27;11445;-75
2022/02/07 10:50:38;;;;;;;;;7.00;3.50;;;;;;;;5182221;27;12344;-75
2022/02/07 10:53:03;;;;;;;;;3.00;2.25;;;;;;;;5181856;27;11418;-76
2022/02/07 10:55:30;;;;;;;;;5.25;3.75;;;;;;;;5182446;27;11615;-75
2022/02/07 10:57:58;;;;;;;;;47.00;33.75;;;;;;;;5182370;27;10714;-76
2022/02/07 11:00:32;;;;;;;;;2.50;2.00;;;;;;;;5177353;27;22928;-75
2022/02/07 11:03:37;;;;;;;;;32.00;28.75;;;;;;;;5171591;27;22631;-75
2022/02/07 11:05:57;;;;;;;;;2.50;2.50;;;;;;;;5166311;27;24046;-75
2022/02/07 11:08:35;;;;;;;;;4.00;3.00;;;;;;;;5169842;27;22741;-75
2022/02/07 11:11:33;;;;;;;;;3.25;1.75;;;;;;;;5169810;27;11552;-74
2022/02/07 11:14:31;;;;;;;;;5.75;3.00;;;;;;;;5171450;27;11540;-75
2022/02/07 11:19:57;;;;;;;;;4.00;2.00;;;;;;;;5170043;27;10690;-73
2022/02/07 11:22:54;;;;;;;;;4.00;3.00;;;;;;;;5169608;27;11786;-73
2022/02/07 11:27:55;;;;;;;;;3.00;2.00;;;;;;;;5173368;27;12454;-73
2022/02/07 11:30:40;;;;;;;;;3.25;2.50;;;;;;;;5170286;27;11619;-74
2022/02/07 11:33:07;;;;;;;;;5.00;3.25;;;;;;;;5167658;27;10973;-74
2022/02/07 11:35:34;;;;;;;;;4.50;2.75;;;;;;;;5168529;27;11560;-73
2022/02/07 11:38:02;;;;;;;;;3.00;2.00;;;;;;;;5160483;27;11502;-75
2022/02/07 11:40:30;;;;;;;;;4.25;4.00;;;;;;;;5160882;27;11379;-72
2022/02/07 11:43:14;;;;;;;;;2.75;2.25;;;;;;;;5160077;27;10804;-73
2022/02/07 11:45:52;;;;;;;;;5.50;3.75;;;;;;;;5146173;27;11742;-74
2022/02/07 11:48:19;;;;;;;;;3.50;3.50;;;;;;;;5155190;27;11158;-73
2022/02/07 11:50:45;;;;;;;;;6.00;4.00;;;;;;;;5157790;27;11770;-74
2022/02/07 11:53:11;;;;;;;;;6.00;6.00;;;;;;;;5160428;27;11433;-74
2022/02/07 11:55:44;;;;;;;;;8.25;7.75;;;;;;;;5168985;27;11369;-73
2022/02/07 11:58:24;;;;;;;;;15.00;10.25;;;;;;;;5180592;27;11433;-73
2022/02/07 12:00:56;;;;;;;;;31.00;29.25;;;;;;;;5180471;27;22556;-73
2022/02/07 12:03:22;;;;;;;;;18.00;15.00;;;;;;;;5180214;27;11511;-75
2022/02/07 12:05:49;;;;;;;;;19.50;13.75;;;;;;;;5180359;27;13215;-75
2022/02/07 12:08:16;;;;;;;;;15.00;13.50;;;;;;;;5179626;27;11439;-73
2022/02/07 12:10:47;;;;;;;;;15.25;15.25;;;;;;;;5175095;27;11570;-74
2022/02/07 12:13:42;;;;;;;;;13.75;12.75;;;;;;;;5156389;27;11557;-72
2022/02/07 12:16:12;;;;;;;;;17.25;15.75;;;;;;;;5137401;27;11453;-75
2022/02/07 12:18:37;;;;;;;;;12.75;10.75;;;;;;;;5159530;27;11527;-73
2022/02/07 12:21:22;;;;;;;;;12.00;11.50;;;;;;;;5140801;27;11423;-74
2022/02/07 12:23:49;;;;;;;;;7.50;7.50;;;;;;;;5159458;27;10583;-73
2022/02/07 12:26:16;;;;;;;;;11.50;10.00;;;;;;;;5171256;27;22510;-76
2022/02/07 12:28:44;;;;;;;;;9.25;9.25;;;;;;;;5179343;27;22395;-75
2022/02/07 12:33:42;;;;;;;;;7.25;7.00;;;;;;;;5179577;27;21381;-73
2022/02/07 12:36:08;;;;;;;;;12.00;10.75;;;;;;;;5178124;27;21504;-73
2022/02/07 12:38:35;;;;;;;;;10.75;9.75;;;;;;;;5159431;27;22783;-72
2022/02/07 12:41:03;;;;;;;;;3.25;2.50;;;;;;;;5176253;27;22668;-74
2022/02/07 12:43:30;;;;;;;;;8.25;7.00;;;;;;;;5179665;27;23041;-73
2022/02/07 12:45:56;;;;;;;;;7.00;6.50;;;;;;;;5178658;27;12647;-74
2022/02/07 12:48:28;;;;;;;;;8.50;7.75;;;;;;;;5178927;27;11962;-80
2022/02/07 12:50:54;;;;;;;;;6.25;6.25;;;;;;;;5162594;27;11852;-76
2022/02/07 12:53:21;;;;;;;;;10.50;7.00;;;;;;;;5159835;27;11478;-72
2022/02/07 12:55:56;;;;;;;;;8.00;5.50;;;;;;;;5159406;27;21569;-74
2022/02/07 12:58:25;;;;;;;;;10.00;8.25;;;;;;;;5159407;27;21598;-73
2022/02/07 13:01:53;;;;;;;;;8.25;8.25;;;;;;;;5215859;27;77858;-75
2022/02/07 13:04:20;;;;;;;;;7.25;7.25;;;;;;;;5198229;27;20789;-75
2022/02/07 13:06:50;;;;;;;;;8.25;7.00;;;;;;;;5194157;27;11605;-76
2022/02/07 13:09:19;;;;;;;;;8.00;8.00;;;;;;;;5178567;27;11602;-76
2022/02/07 13:11:48;;;;;;;;;9.75;9.75;;;;;;;;5197824;27;11372;-76
2022/02/07 13:14:18;;;;;;;;;7.75;7.75;;;;;;;;5178772;27;11930;-75
2022/02/07 13:16:44;;;;;;;;;5.25;5.25;;;;;;;;5198038;27;12295;-74
2022/02/07 13:19:17;;;;;;;;;9.50;7.75;;;;;;;;5179036;27;11451;-74
2022/02/07 13:21:44;;;;;;;;;10.25;10.25;;;;;;;;5197736;27;11361;-75
2022/02/07 13:24:10;;;;;;;;;7.50;6.25;;;;;;;;5197359;27;22460;-75
2022/02/07 13:26:36;;;;;;;;;9.50;7.50;;;;;;;;5197293;27;22425;-79
2022/02/07 13:29:03;;;;;;;;;10.00;8.25;;;;;;;;5198024;27;12936;-76
2022/02/07 13:31:28;;;;;;;;;7.25;6.25;;;;;;;;5197178;27;21457;-75
2022/02/07 13:33:54;;;;;;;;;6.00;5.00;;;;;;;;5196747;27;21780;-74
2022/02/07 13:36:37;;;;;;;;;7.75;6.75;;;;;;;;5197760;27;11720;-75
2022/02/07 13:39:03;;;;;;;;;6.75;5.75;;;;;;;;5196799;27;11389;-75
2022/02/07 13:41:29;;;;;;;;;6.50;6.00;;;;;;;;5196840;27;11375;-75
2022/02/07 13:43:54;;;;;;;;;5.75;5.00;;;;;;;;5179117;27;11469;-82
2022/02/07 13:46:19;;;;;;;;;6.75;5.75;;;;;;;;5178639;27;10680;-76
2022/02/07 13:48:45;;;;;;;;;6.25;5.50;;;;;;;;5197563;27;11458;-75
2022/02/07 13:51:10;;;;;;;;;5.75;5.75;;;;;;;;5196778;27;8784;-77
2022/02/07 13:53:38;;;;;;;;;6.50;5.00;;;;;;;;5186344;27;11297;-74
2022/02/07 13:56:03;;;;;;;;;6.50;6.00;;;;;;;;5169805;27;11824;-76
2022/02/07 13:58:33;;;;;;;;;5.00;5.00;;;;;;;;5197688;27;11533;-74
2022/02/07 14:01:21;;;;;;;;;7.00;6.00;;;;;;;;5197203;27;10353;-76
2022/02/07 14:03:55;;;;;;;;;5.75;5.00;;;;;;;;5197175;27;11357;-77
2022/02/07 14:06:20;;;;;;;;;10.00;6.00;;;;;;;;5196859;27;11374;-77
2022/02/07 14:08:51;;;;;;;;;9.00;7.25;;;;;;;;5196630;27;21372;-77
2022/02/07 14:11:30;;;;;;;;;8.50;8.00;;;;;;;;5192779;27;21865;-76
2022/02/07 14:13:57;;;;;;;;;3.00;3.00;;;;;;;;5183551;27;11582;-75
2022/02/07 14:16:24;;;;;;;;;6.00;6.00;;;;;;;;5182712;27;11355;-77
2022/02/07 14:18:50;;;;;;;;;5.00;3.00;;;;;;;;5183620;27;12310;-75
2022/02/07 14:21:17;;;;;;;;;4.00;3.00;;;;;;;;5183082;27;11568;-75
2022/02/07 14:23:45;;;;;;;;;6.00;3.00;;;;;;;;5183027;27;11463;-77
2022/02/07 14:26:15;;;;;;;;;2.25;2.25;;;;;;;;5183357;27;11436;-75
2022/02/07 14:28:40;;;;;;;;;7.75;5.25;;;;;;;;5183194;27;11532;-75
2022/02/07 14:31:08;;;;;;;;;6.50;4.50;;;;;;;;5163702;27;11741;-76
2022/02/07 14:33:34;;;;;;;;;9.50;8.50;;;;;;;;5185136;27;11541;-74
2022/02/07 14:35:59;;;;;;;;;6.75;5.00;;;;;;;;5187762;27;12354;-76
2022/02/07 14:38:25;;;;;;;;;9.50;6.75;;;;;;;;5166852;27;13153;-75
2022/02/07 14:40:50;;;;;;;;;7.50;6.50;;;;;;;;5182657;27;11307;-75
2022/02/07 14:43:21;;;;;;;;;7.25;6.75;;;;;;;;5182446;27;12597;-76
2022/02/07 14:46:01;;;;;;;;;6.00;5.25;;;;;;;;5164129;27;8907;-74
2022/02/07 14:48:26;;;;;;;;;7.50;5.75;;;;;;;;5182914;27;11428;-77
2022/02/07 14:50:52;;;;;;;;;6.75;4.50;;;;;;;;5182184;27;11459;-73
2022/02/07 14:53:17;;;;;;;;;6.00;3.00;;;;;;;;5183287;27;11582;-73
2022/02/07 14:55:43;;;;;;;;;5.50;5.50;;;;;;;;5181567;27;10278;-74
2022/02/07 14:58:08;;;;;;;;;5.25;5.25;;;;;;;;5181490;27;12079;-74
2022/02/07 15:00:34;;;;;;;;;7.00;6.00;;;;;;;;5180826;27;8910;-74
2022/02/07 15:03:00;;;;;;;;;5.00;5.00;;;;;;;;5181138;27;11511;-73
2022/02/07 15:05:34;;;;;;;;;6.25;5.00;;;;;;;;5178058;27;8824;-73
2022/02/07 15:07:59;;;;;;;;;6.00;5.00;;;;;;;;5178406;27;9056;-74
2022/02/07 15:10:25;;;;;;;;;6.00;5.00;;;;;;;;5179789;27;11478;-74
2022/02/07 15:12:50;;;;;;;;;5.00;3.00;;;;;;;;5182593;27;8780;-73
2022/02/07 15:15:16;;;;;;;;;3.00;3.00;;;;;;;;5182342;27;11442;-73
2022/02/07 15:17:42;;;;;;;;;5.00;4.50;;;;;;;;5181111;27;9526;-76
2022/02/07 15:20:09;;;;;;;;;4.50;3.50;;;;;;;;5181442;27;11549;-75
2022/02/07 15:22:35;;;;;;;;;6.50;4.00;;;;;;;;5181379;27;11535;-76
2022/02/07 15:25:01;;;;;;;;;8.50;3.00;;;;;;;;5177306;27;11571;-74
2022/02/07 15:27:29;;;;;;;;;2.00;2.00;;;;;;;;5181762;27;8950;-74
2022/02/07 15:29:54;;;;;;;;;3.50;3.50;;;;;;;;5180816;27;11479;-74
2022/02/07 15:32:29;;;;;;;;;4.50;4.50;;;;;;;;5181436;27;11473;-73
2022/02/07 15:34:57;;;;;;;;;5.00;5.00;;;;;;;;5164653;27;8821;-74
2022/02/07 15:37:23;;;;;;;;;6.75;6.00;;;;;;;;5171564;27;12229;-73
2022/02/07 15:39:49;;;;;;;;;3.00;3.00;;;;;;;;5175574;27;11569;-73
2022/02/07 15:42:15;;;;;;;;;5.50;4.50;;;;;;;;5180047;27;12438;-73
2022/02/07 15:44:40;;;;;;;;;6.25;5.00;;;;;;;;5177084;27;11547;-74
2022/02/07 15:47:05;;;;;;;;;5.00;5.00;;;;;;;;5172428;27;11601;-75
2022/02/07 15:49:31;;;;;;;;;7.00;5.00;;;;;;;;5151342;27;9326;-75
2022/02/07 15:51:56;;;;;;;;;5.50;5.00;;;;;;;;5171154;27;8804;-75
2022/02/07 15:54:22;;;;;;;;;7.25;5.00;;;;;;;;5171867;27;8918;-75
2022/02/07 15:56:47;;;;;;;;;5.00;5.00;;;;;;;;5152744;27;10816;-74
2022/02/07 15:59:13;;;;;;;;;7.50;5.25;;;;;;;;5170719;27;8845;-73
2022/02/07 16:01:38;;;;;;;;;2.75;2.75;;;;;;;;5169339;27;12566;-75
2022/02/07 16:04:03;;;;;;;;;6.25;3.00;;;;;;;;5169450;27;10287;-75
2022/02/07 16:06:28;;;;;;;;;8.75;5.25;;;;;;;;5171004;27;11602;-73
2022/02/07 16:08:54;;;;;;;;;3.50;3.00;;;;;;;;5170870;27;12762;-75
2022/02/07 16:11:19;;;;;;;;;4.00;4.00;;;;;;;;5169662;27;11526;-74
2022/02/07 16:13:50;;;;;;;;;2.50;2.50;;;;;;;;5171457;27;10445;-73
2022/02/07 16:16:16;;;;;;;;;3.50;2.00;;;;;;;;5170499;27;11750;-73
2022/02/07 16:18:42;;;;;;;;;1.00;1.00;;;;;;;;5149468;27;12114;-72
2022/02/07 16:21:07;;;;;;;;;2.75;2.75;;;;;;;;5152169;27;10959;-75
2022/02/07 16:23:32;;;;;;;;;4.50;4.00;;;;;;;;5170445;27;11288;-74
2022/02/07 16:25:58;;;;;;;;;5.50;4.75;;;;;;;;5170376;27;11308;-83
2022/02/07 16:28:24;;;;;;;;;5.50;4.00;;;;;;;;5171855;27;13097;-81
2022/02/07 16:30:50;;;;;;;;;1.00;1.00;;;;;;;;5170356;27;8830;-73
2022/02/07 16:33:16;;;;;;;;;2.25;1.00;;;;;;;;5169142;27;10336;-72
2022/02/07 16:35:42;;;;;;;;;1.75;1.75;;;;;;;;5170194;27;11673;-73
2022/02/07 16:38:08;;;;;;;;;2.00;1.50;;;;;;;;5168911;27;11488;-73
2022/02/07 16:40:34;;;;;;;;;4.00;2.75;;;;;;;;5169577;27;12993;-74
2022/02/07 16:43:00;;;;;;;;;0.25;0.00;;;;;;;;5170653;27;11409;-76
2022/02/07 16:45:38;;;;;;;;;3.00;0.00;;;;;;;;5168940;27;11345;-75
2022/02/07 16:48:04;;;;;;;;;0.00;0.00;;;;;;;;5168527;27;8867;-74
2022/02/07 16:50:30;;;;;;;;;0.00;0.00;;;;;;;;5169990;27;11537;-74
2022/02/07 16:52:56;;;;;;;;;0.00;0.00;;;;;;;;5169730;27;11538;-74
2022/02/07 16:55:22;;;;;;;;;0.00;0.00;;;;;;;;5168426;27;9504;-75
2022/02/07 16:57:47;;;;;;;;;0.00;0.00;;;;;;;;5149764;27;11499;-75
2022/02/07 17:00:13;;;;;;;;;0.00;0.00;;;;;;;;5150218;27;8804;-75
2022/02/07 17:02:39;;;;;;;;;0.00;0.00;;;;;;;;5171271;27;8811;-75
2022/02/07 17:05:05;;;;;;;;;0.00;0.00;;;;;;;;5168700;27;8775;-75
2022/02/07 17:07:30;;;;;;;;;1.50;0.00;;;;;;;;5170196;27;11457;-74
2022/02/07 17:09:55;;;;;;;;;0.75;0.00;;;;;;;;5170209;27;8856;-74
2022/02/07 17:12:21;;;;;;;;;0.00;0.00;;;;;;;;5174555;27;8979;-73
2022/02/07 17:14:46;;;;;;;;;0.00;0.00;;;;;;;;5165749;27;8805;-75
2022/02/07 17:17:11;;;;;;;;;0.00;0.00;;;;;;;;5162908;27;8803;-76
2022/02/07 17:19:36;;;;;;;;;0.00;0.00;;;;;;;;5168062;27;8807;-76
2022/02/07 17:22:02;;;;;;;;;0.00;0.00;;;;;;;;5172356;27;8941;-75